createdAt,value
2017-05-17T00:00:07.096Z,6.76
2017-05-17T00:02:35.916Z,7.48
2017-05-17T00:05:04.731Z,7.10
2017-05-17T00:07:33.564Z,6.90
2017-05-17T00:10:02.392Z,6.72
2017-05-17T00:12:31.224Z,8.76
2017-05-17T00:15:00.060Z,6.00
2017-05-17T00:17:28.894Z,8.04
2017-05-17T00:19:58.194Z,7.78
2017-05-17T00:22:27.012Z,7.40
2017-05-17T00:24:55.932Z,7.06
2017-05-17T00:27:25.502Z,6.98
2017-05-17T00:29:54.330Z,7.74
2017-05-17T00:32:23.904Z,7.68
2017-05-17T00:34:52.730Z,8.76
2017-05-17T00:37:33.640Z,7.64
2017-05-17T00:40:14.209Z,9.68
2017-05-17T00:42:54.983Z,8.88
2017-05-17T00:45:35.593Z,7.62
2017-05-17T00:48:16.546Z,7.96
2017-05-17T00:50:57.143Z,8.34
2017-05-17T00:53:25.997Z,8.78
2017-05-17T00:55:54.836Z,9.18
2017-05-17T00:58:23.687Z,9.92
2017-05-17T01:00:52.528Z,6.90
2017-05-17T01:03:21.352Z,8.54
2017-05-17T01:05:50.215Z,8.94
2017-05-17T01:08:19.051Z,9.32
2017-05-17T01:10:47.887Z,8.72
2017-05-17T01:13:16.736Z,7.38
2017-05-17T01:15:45.603Z,8.48
2017-05-17T01:18:14.762Z,9.08
2017-05-17T01:20:43.575Z,7.20
2017-05-17T01:23:12.418Z,8.90
2017-05-17T01:25:41.249Z,8.38
2017-05-17T01:28:10.099Z,8.20
2017-05-17T01:30:38.919Z,8.30
2017-05-17T01:33:07.770Z,9.36
2017-05-17T01:35:36.602Z,8.88
2017-05-17T01:38:05.424Z,8.96
2017-05-17T01:40:34.252Z,7.36
2017-05-17T01:43:03.080Z,8.32
2017-05-17T01:45:32.268Z,10.52
2017-05-17T01:48:01.084Z,9.50
2017-05-17T01:50:29.931Z,8.96
2017-05-17T01:52:58.772Z,8.50
2017-05-17T01:55:27.611Z,9.36
2017-05-17T01:57:56.451Z,9.78
2017-05-17T02:00:25.276Z,8.98
2017-05-17T02:02:54.133Z,7.78
2017-05-17T02:05:22.962Z,9.84
2017-05-17T02:07:51.819Z,9.46
2017-05-17T02:10:20.644Z,10.20
2017-05-17T02:12:49.480Z,9.20
2017-05-17T02:15:18.316Z,8.82
2017-05-17T02:17:47.135Z,8.98
2017-05-17T02:20:15.996Z,10.04
2017-05-17T02:22:44.864Z,9.76
2017-05-17T02:25:13.691Z,9.66
2017-05-17T02:27:42.532Z,8.66
2017-05-17T02:30:11.386Z,9.92
2017-05-17T02:32:40.243Z,10.56
2017-05-17T02:35:09.219Z,9.82
2017-05-17T02:37:38.794Z,9.50
2017-05-17T02:40:07.630Z,7.20
2017-05-17T02:42:36.511Z,9.74
2017-05-17T02:45:05.347Z,8.40
2017-05-17T02:47:34.184Z,8.96
2017-05-17T02:50:03.018Z,9.38
2017-05-17T02:52:31.857Z,9.74
2017-05-17T02:55:01.432Z,26.24
2017-05-17T02:57:30.274Z,11.92
2017-05-17T02:59:59.122Z,10.72
2017-05-17T03:02:28.009Z,11.18
2017-05-17T03:04:56.911Z,9.82
2017-05-17T03:07:26.486Z,10.36
2017-05-17T03:09:55.387Z,11.32
2017-05-17T03:12:24.233Z,11.66
2017-05-17T03:14:53.163Z,11.34
2017-05-17T03:17:21.999Z,11.16
2017-05-17T03:19:50.892Z,12.40
2017-05-17T03:22:19.735Z,12.78
2017-05-17T03:24:48.582Z,12.36
2017-05-17T03:27:17.425Z,12.28
2017-05-17T03:29:46.468Z,10.90
2017-05-17T03:32:15.328Z,11.66
2017-05-17T03:34:44.161Z,11.60
2017-05-17T03:37:12.992Z,11.44
2017-05-17T03:39:41.839Z,12.28
2017-05-17T03:42:10.677Z,10.60
2017-05-17T03:44:39.515Z,9.10
2017-05-17T03:47:08.570Z,12.96
2017-05-17T03:49:37.412Z,13.66
2017-05-17T03:52:06.265Z,13.48
2017-05-17T03:54:35.113Z,11.94
2017-05-17T03:57:03.952Z,12.70
2017-05-17T03:59:32.787Z,14.02
2017-05-17T04:02:01.652Z,13.28
2017-05-17T04:04:30.822Z,12.80
2017-05-17T04:06:59.675Z,12.00
2017-05-17T04:09:28.544Z,11.12
2017-05-17T04:11:57.378Z,10.04
2017-05-17T04:14:26.232Z,9.22
2017-05-17T04:16:55.076Z,10.94
2017-05-17T04:19:23.928Z,10.14
2017-05-17T04:21:52.767Z,12.30
2017-05-17T04:24:21.604Z,11.14
2017-05-17T04:26:50.470Z,12.34
2017-05-17T04:29:19.329Z,11.48
2017-05-17T04:31:48.187Z,11.88
2017-05-17T04:34:17.085Z,9.86
2017-05-17T04:36:45.920Z,13.04
2017-05-17T04:39:14.766Z,13.74
2017-05-17T04:41:43.595Z,12.86
2017-05-17T04:44:12.425Z,11.10
2017-05-17T04:46:41.275Z,13.18
2017-05-17T04:49:10.103Z,11.28
2017-05-17T04:51:38.954Z,10.30
2017-05-17T04:54:07.798Z,10.42
2017-05-17T04:56:36.666Z,11.56
2017-05-17T04:59:05.507Z,9.56
2017-05-17T05:01:34.330Z,12.02
2017-05-17T05:04:03.167Z,10.20
2017-05-17T05:06:32.018Z,11.54
2017-05-17T05:09:00.856Z,9.58
2017-05-17T05:11:29.679Z,11.42
2017-05-17T05:13:58.527Z,9.02
2017-05-17T05:16:27.355Z,8.82
2017-05-17T05:18:56.184Z,10.62
2017-05-17T05:21:25.031Z,10.52
2017-05-17T05:23:53.876Z,7.38
2017-05-17T05:26:22.711Z,8.56
2017-05-17T05:28:51.583Z,7.84
2017-05-17T05:31:20.442Z,8.10
2017-05-17T05:33:49.385Z,9.56
2017-05-17T05:36:18.270Z,8.72
2017-05-17T05:38:47.103Z,7.64
2017-05-17T05:41:15.923Z,8.60
2017-05-17T05:43:44.776Z,5.92
2017-05-17T05:46:13.583Z,8.22
2017-05-17T05:48:42.440Z,9.02
2017-05-17T05:51:11.290Z,7.50
2017-05-17T05:53:40.136Z,7.98
2017-05-17T05:56:08.988Z,9.88
2017-05-17T05:58:37.816Z,8.28
2017-05-17T06:01:06.632Z,7.36
2017-05-17T06:03:35.473Z,8.92
2017-05-17T06:06:04.301Z,9.18
2017-05-17T06:08:33.149Z,9.06
2017-05-17T06:11:01.216Z,7.70
2017-05-17T06:13:30.044Z,8.18
2017-05-17T06:15:58.880Z,8.78
2017-05-17T06:18:27.722Z,7.40
2017-05-17T06:20:56.584Z,6.62
2017-05-17T06:23:25.404Z,6.38
2017-05-17T06:25:54.240Z,4.46
2017-05-17T06:28:23.104Z,5.82
2017-05-17T06:30:51.955Z,5.74
2017-05-17T06:33:21.547Z,6.14
2017-05-17T06:35:50.405Z,5.90
2017-05-17T06:38:19.300Z,5.48
2017-05-17T06:40:48.415Z,5.58
2017-05-17T06:43:17.313Z,6.00
2017-05-17T06:45:46.160Z,6.28
2017-05-17T06:48:14.983Z,5.64
2017-05-17T06:50:43.813Z,6.58
2017-05-17T06:53:12.871Z,6.54
2017-05-17T06:55:41.701Z,6.18
2017-05-17T06:58:10.529Z,6.52
2017-05-17T07:00:39.367Z,7.58
2017-05-17T07:03:08.196Z,7.00
2017-05-17T07:05:37.048Z,6.10
2017-05-17T07:08:05.859Z,6.14
2017-05-17T07:10:34.723Z,5.86
2017-05-17T07:13:03.560Z,7.10
2017-05-17T07:15:32.404Z,5.36
2017-05-17T07:18:01.250Z,4.92
2017-05-17T07:20:30.069Z,5.12
2017-05-17T07:22:58.913Z,5.10
2017-05-17T07:25:27.745Z,4.94
2017-05-17T07:27:56.568Z,4.92
2017-05-17T07:30:25.397Z,5.64
2017-05-17T07:32:54.258Z,5.58
2017-05-17T07:35:23.107Z,5.18
2017-05-17T07:37:51.928Z,4.34
2017-05-17T07:40:20.756Z,5.78
2017-05-17T07:42:49.609Z,6.12
2017-05-17T07:45:18.427Z,5.62
2017-05-17T07:47:47.271Z,4.90
2017-05-17T07:50:16.105Z,4.84
2017-05-17T07:52:44.948Z,5.56
2017-05-17T07:55:13.795Z,4.94
2017-05-17T07:57:42.633Z,5.10
2017-05-17T08:00:11.683Z,4.32
2017-05-17T08:02:40.495Z,4.50
2017-05-17T08:05:09.334Z,5.24
2017-05-17T08:07:38.165Z,4.86
2017-05-17T08:10:07.012Z,4.74
2017-05-17T08:12:35.870Z,4.68
2017-05-17T08:15:04.696Z,4.90
2017-05-17T08:17:33.518Z,4.88
2017-05-17T08:20:02.353Z,4.94
2017-05-17T08:22:31.176Z,4.84
2017-05-17T08:25:00.030Z,4.72
2017-05-17T08:27:28.871Z,5.34
2017-05-17T08:29:57.722Z,4.20
2017-05-17T08:32:26.564Z,5.44
2017-05-17T08:34:55.397Z,5.52
2017-05-17T08:37:24.242Z,4.64
2017-05-17T08:39:53.061Z,4.70
2017-05-17T08:42:21.899Z,4.78
2017-05-17T08:44:50.729Z,5.10
2017-05-17T08:47:19.549Z,4.58
2017-05-17T08:49:48.407Z,4.10
2017-05-17T08:52:17.261Z,5.10
2017-05-17T08:54:46.103Z,5.38
2017-05-17T08:57:14.939Z,4.64
2017-05-17T08:59:43.787Z,3.82
2017-05-17T09:02:12.617Z,4.18
2017-05-17T09:04:41.436Z,4.72
2017-05-17T09:07:10.286Z,3.98
2017-05-17T09:09:39.109Z,4.14
2017-05-17T09:12:07.930Z,4.84
2017-05-17T09:14:36.770Z,4.16
2017-05-17T09:17:05.584Z,4.72
2017-05-17T09:19:34.454Z,4.28
2017-05-17T09:22:03.282Z,4.22
2017-05-17T09:24:32.113Z,3.84
2017-05-17T09:27:00.967Z,3.72
2017-05-17T09:29:29.783Z,4.62
2017-05-17T09:31:58.666Z,4.52
2017-05-17T09:34:27.485Z,4.30
2017-05-17T09:36:56.308Z,4.24
2017-05-17T09:39:25.537Z,4.10
2017-05-17T09:41:54.367Z,4.72
2017-05-17T09:44:23.208Z,4.48
2017-05-17T09:46:52.039Z,4.36
2017-05-17T09:49:20.855Z,4.80
2017-05-17T09:51:49.708Z,4.26
2017-05-17T09:54:18.555Z,4.40
2017-05-17T09:56:47.387Z,4.22
2017-05-17T09:59:16.232Z,4.16
2017-05-17T10:01:45.083Z,4.48
2017-05-17T10:04:13.903Z,3.56
2017-05-17T10:06:42.730Z,3.88
2017-05-17T10:09:11.562Z,4.14
2017-05-17T10:11:40.391Z,4.16
2017-05-17T10:14:09.222Z,3.56
2017-05-17T10:16:38.045Z,3.88
2017-05-17T10:19:06.879Z,4.02
2017-05-17T10:21:35.726Z,3.66
2017-05-17T10:24:04.564Z,3.94
2017-05-17T10:26:33.421Z,4.14
2017-05-17T10:29:02.647Z,3.88
2017-05-17T10:31:31.479Z,4.40
2017-05-17T10:34:00.330Z,3.60
2017-05-17T10:36:29.155Z,3.54
2017-05-17T10:38:58.008Z,3.04
2017-05-17T10:41:26.847Z,4.06
2017-05-17T10:43:55.697Z,3.40
2017-05-17T10:46:24.550Z,3.22
2017-05-17T10:48:53.381Z,3.50
2017-05-17T10:51:22.183Z,3.38
2017-05-17T10:53:51.041Z,3.46
2017-05-17T10:56:19.885Z,3.02
2017-05-17T10:58:48.726Z,3.40
2017-05-17T11:01:17.596Z,3.62
2017-05-17T11:03:46.413Z,3.58
2017-05-17T11:06:15.258Z,3.90
2017-05-17T11:08:44.084Z,3.24
2017-05-17T11:11:12.928Z,3.84
2017-05-17T11:13:41.778Z,3.34
2017-05-17T11:16:10.605Z,3.24
2017-05-17T11:18:39.435Z,3.24
2017-05-17T11:21:08.280Z,3.80
2017-05-17T11:23:37.111Z,3.32
2017-05-17T11:26:05.962Z,3.40
2017-05-17T11:28:34.781Z,3.62
2017-05-17T11:31:03.609Z,4.82
2017-05-17T11:33:32.425Z,3.34
2017-05-17T11:36:01.291Z,3.76
2017-05-17T11:38:30.135Z,3.88
2017-05-17T11:40:58.965Z,3.90
2017-05-17T11:43:27.819Z,3.56
2017-05-17T11:45:56.643Z,3.46
2017-05-17T11:48:25.507Z,4.12
2017-05-17T11:50:57.344Z,3.92
2017-05-17T11:53:26.296Z,3.72
2017-05-17T11:55:55.157Z,3.82
2017-05-17T11:58:24.043Z,3.70
2017-05-17T12:00:52.881Z,3.70
2017-05-17T12:03:21.743Z,4.32
2017-05-17T12:05:50.831Z,4.76
2017-05-17T12:08:20.047Z,4.00
2017-05-17T12:10:48.859Z,3.98
2017-05-17T12:13:17.704Z,3.58
2017-05-17T12:15:46.523Z,3.28
2017-05-17T12:18:15.396Z,2.94
2017-05-17T12:20:44.212Z,3.14
2017-05-17T12:23:13.031Z,3.68
2017-05-17T12:25:41.887Z,3.40
2017-05-17T12:28:10.731Z,3.10
2017-05-17T12:30:39.581Z,3.26
2017-05-17T12:33:08.415Z,3.54
2017-05-17T12:35:37.232Z,3.68
2017-05-17T12:38:06.091Z,3.48
2017-05-17T12:40:34.920Z,3.30
2017-05-17T12:43:03.765Z,3.40
2017-05-17T12:45:32.631Z,3.58
2017-05-17T12:48:01.451Z,3.80
2017-05-17T12:50:30.301Z,3.68
2017-05-17T12:52:59.115Z,3.80
2017-05-17T12:55:27.973Z,3.90
2017-05-17T12:57:56.798Z,3.70
2017-05-17T13:00:25.623Z,3.20
2017-05-17T13:02:54.451Z,3.48
2017-05-17T13:05:23.273Z,3.34
2017-05-17T13:07:52.117Z,2.98
2017-05-17T13:10:20.958Z,3.16
2017-05-17T13:12:49.790Z,3.06
2017-05-17T13:15:18.617Z,3.10
2017-05-17T13:17:47.459Z,3.40
2017-05-17T13:20:16.319Z,3.56
2017-05-17T13:22:45.680Z,3.58
2017-05-17T13:25:14.497Z,3.40
2017-05-17T13:27:43.347Z,3.52
2017-05-17T13:30:12.169Z,3.02
2017-05-17T13:32:41.024Z,3.10
2017-05-17T13:35:09.847Z,2.58
2017-05-17T13:37:38.673Z,2.50
2017-05-17T13:40:07.505Z,3.22
2017-05-17T13:42:36.326Z,3.28
2017-05-17T13:45:05.173Z,2.98
2017-05-17T13:47:33.995Z,3.72
2017-05-17T13:50:02.834Z,3.40
2017-05-17T13:52:31.668Z,3.28
2017-05-17T13:55:00.520Z,3.30
2017-05-17T13:57:29.380Z,3.04
2017-05-17T13:59:58.224Z,3.06
2017-05-17T14:02:27.068Z,3.14
2017-05-17T14:04:55.903Z,3.40
2017-05-17T14:07:24.751Z,3.40
2017-05-17T14:09:53.599Z,3.38
2017-05-17T14:12:22.497Z,2.90
2017-05-17T14:14:51.279Z,3.04
2017-05-17T14:17:20.105Z,2.80
2017-05-17T14:19:48.935Z,2.54
2017-05-17T14:22:17.791Z,2.70
2017-05-17T14:24:46.637Z,3.08
2017-05-17T14:27:15.463Z,3.28
2017-05-17T14:29:44.293Z,3.70
2017-05-17T14:32:13.115Z,3.26
2017-05-17T14:34:41.972Z,3.38
2017-05-17T14:37:10.809Z,3.52
2017-05-17T14:39:39.631Z,3.68
2017-05-17T14:42:08.467Z,2.72
2017-05-17T14:44:37.301Z,3.06
2017-05-17T14:47:06.131Z,3.08
2017-05-17T14:49:34.968Z,2.68
2017-05-17T14:52:03.813Z,3.64
2017-05-17T14:54:32.644Z,3.10
2017-05-17T14:57:01.469Z,3.34
2017-05-17T14:59:30.316Z,5.94
2017-05-17T15:01:59.142Z,3.38
2017-05-17T15:04:27.999Z,3.12
2017-05-17T15:06:57.085Z,3.34
2017-05-17T15:09:25.884Z,2.54
2017-05-17T15:11:54.715Z,3.42
2017-05-17T15:14:24.418Z,3.20
2017-05-17T15:16:53.301Z,2.60
2017-05-17T15:19:22.133Z,2.70
2017-05-17T15:21:51.043Z,2.94
2017-05-17T15:24:19.981Z,2.88
2017-05-17T15:26:49.668Z,2.64
2017-05-17T15:29:18.523Z,2.66
2017-05-17T15:31:47.348Z,2.50
2017-05-17T15:34:16.184Z,3.00
2017-05-17T15:36:45.012Z,2.86
2017-05-17T15:39:13.825Z,2.80
2017-05-17T15:41:42.677Z,2.68
2017-05-17T15:44:11.497Z,2.32
2017-05-17T15:46:40.325Z,2.20
2017-05-17T15:49:09.154Z,2.84
2017-05-17T15:51:37.968Z,2.76
2017-05-17T15:54:06.800Z,2.84
2017-05-17T15:56:35.620Z,2.60
2017-05-17T15:59:04.444Z,3.38
2017-05-17T16:01:33.282Z,2.80
2017-05-17T16:04:02.098Z,3.34
2017-05-17T16:06:30.919Z,5.24
2017-05-17T16:08:59.774Z,3.94
2017-05-17T16:11:28.591Z,2.42
2017-05-17T16:13:57.449Z,3.30
2017-05-17T16:16:26.280Z,2.88
2017-05-17T16:18:55.110Z,3.40
2017-05-17T16:21:23.945Z,2.90
2017-05-17T16:23:52.792Z,3.68
2017-05-17T16:26:21.640Z,2.96
2017-05-17T16:28:50.484Z,3.60
2017-05-17T16:31:19.315Z,3.48
2017-05-17T16:33:48.145Z,3.30
2017-05-17T16:36:16.960Z,3.60
2017-05-17T16:38:46.654Z,2.64
2017-05-17T16:41:15.491Z,2.20
2017-05-17T16:43:44.332Z,2.72
2017-05-17T16:46:13.177Z,3.10
2017-05-17T16:48:41.989Z,3.00
2017-05-17T16:51:10.805Z,2.78
2017-05-17T16:53:39.650Z,3.58
2017-05-17T16:56:08.478Z,2.98
2017-05-17T16:58:37.327Z,3.24
2017-05-17T17:01:06.187Z,3.10
2017-05-17T17:03:35.005Z,3.00
2017-05-17T17:06:03.833Z,3.56
2017-05-17T17:08:32.769Z,3.62
2017-05-17T17:11:01.579Z,3.32
2017-05-17T17:13:30.420Z,3.64
2017-05-17T17:15:59.261Z,3.88
2017-05-17T17:18:28.079Z,3.54
2017-05-17T17:20:56.902Z,4.14
2017-05-17T17:23:25.753Z,4.02
2017-05-17T17:25:54.575Z,4.00
2017-05-17T17:28:23.416Z,3.80
2017-05-17T17:30:52.271Z,3.60
2017-05-17T17:33:21.093Z,3.70
2017-05-17T17:35:49.941Z,3.82
2017-05-17T17:38:18.767Z,3.22
2017-05-17T17:40:47.583Z,3.18
2017-05-17T17:43:16.398Z,3.52
2017-05-17T17:45:45.235Z,3.38
2017-05-17T17:48:14.061Z,3.30
2017-05-17T17:50:42.884Z,3.60
2017-05-17T17:53:11.726Z,3.54
2017-05-17T17:55:40.543Z,3.98
2017-05-17T17:58:09.392Z,4.28
2017-05-17T18:00:38.298Z,4.36
2017-05-17T18:03:07.149Z,4.36
2017-05-17T18:05:35.969Z,4.10
2017-05-17T18:08:04.812Z,4.20
2017-05-17T18:10:33.628Z,3.48
2017-05-17T18:13:02.511Z,3.32
2017-05-17T18:15:31.367Z,4.24
2017-05-17T18:18:00.183Z,3.50
2017-05-17T18:20:29.017Z,4.02
2017-05-17T18:22:57.852Z,4.50
2017-05-17T18:25:26.664Z,4.06
2017-05-17T18:27:55.500Z,4.62
2017-05-17T18:30:24.331Z,4.38
2017-05-17T18:32:53.168Z,4.52
2017-05-17T18:35:22.011Z,4.56
2017-05-17T18:37:50.828Z,4.68
2017-05-17T18:40:19.677Z,4.72
2017-05-17T18:42:48.506Z,5.22
2017-05-17T18:45:17.349Z,4.86
2017-05-17T18:47:46.165Z,4.96
2017-05-17T18:50:15.005Z,4.96
2017-05-17T18:52:43.847Z,5.00
2017-05-17T18:55:12.693Z,5.96
2017-05-17T18:57:41.522Z,5.24
2017-05-17T19:00:10.368Z,5.34
2017-05-17T19:02:39.190Z,4.04
2017-05-17T19:05:08.050Z,5.98
2017-05-17T19:07:36.873Z,5.66
2017-05-17T19:10:05.687Z,5.68
2017-05-17T19:12:34.552Z,5.54
2017-05-17T19:15:03.377Z,5.94
2017-05-17T19:17:32.193Z,6.02
2017-05-17T19:20:01.045Z,6.22
2017-05-17T19:22:29.864Z,5.90
2017-05-17T19:24:58.692Z,6.00
2017-05-17T19:27:27.515Z,6.38
2017-05-17T19:29:56.354Z,7.06
2017-05-17T19:32:25.164Z,5.80
2017-05-17T19:34:54.015Z,5.50
2017-05-17T19:37:22.837Z,6.46
2017-05-17T19:39:51.694Z,5.16
2017-05-17T19:42:20.512Z,5.86
2017-05-17T19:44:49.332Z,6.16
2017-05-17T19:47:18.172Z,5.92
2017-05-17T19:49:47.002Z,6.50
2017-05-17T19:52:15.907Z,5.78
2017-05-17T19:54:44.770Z,6.12
2017-05-17T19:57:13.547Z,6.38
2017-05-17T19:59:42.384Z,6.30
2017-05-17T20:02:11.200Z,6.64
2017-05-17T20:04:40.050Z,6.02
2017-05-17T20:07:08.891Z,5.76
2017-05-17T20:09:37.986Z,5.02
2017-05-17T20:12:06.799Z,6.04
2017-05-17T20:14:35.641Z,5.84
2017-05-17T20:17:04.510Z,6.58
2017-05-17T20:19:33.339Z,6.40
2017-05-17T20:22:02.203Z,5.86
2017-05-17T20:24:31.032Z,5.90
2017-05-17T20:26:59.847Z,7.24
2017-05-17T20:29:28.671Z,5.96
2017-05-17T20:31:57.493Z,4.70
2017-05-17T20:34:26.316Z,5.72
2017-05-17T20:36:55.166Z,5.30
2017-05-17T20:39:24.012Z,5.68
2017-05-17T20:41:52.827Z,5.98
2017-05-17T20:44:21.676Z,5.54
2017-05-17T20:46:50.511Z,5.20
2017-05-17T20:49:19.328Z,4.54
2017-05-17T20:51:48.187Z,4.20
2017-05-17T20:54:17.029Z,5.40
2017-05-17T20:56:45.859Z,4.60
2017-05-17T20:59:14.694Z,6.44
2017-05-17T21:01:43.526Z,6.16
2017-05-17T21:04:12.348Z,4.94
2017-05-17T21:06:41.171Z,4.90
2017-05-17T21:09:10.012Z,6.28
2017-05-17T21:11:38.838Z,6.00
2017-05-17T21:14:07.678Z,6.90
2017-05-17T21:16:36.499Z,5.94
2017-05-17T21:19:05.348Z,6.58
2017-05-17T21:21:34.160Z,5.76
2017-05-17T21:24:03.091Z,6.10
2017-05-17T21:26:31.924Z,5.92
2017-05-17T21:29:00.757Z,4.92
2017-05-17T21:31:29.608Z,5.24
2017-05-17T21:33:58.424Z,5.08
2017-05-17T21:36:27.265Z,4.92
2017-05-17T21:38:56.110Z,6.10
2017-05-17T21:41:24.950Z,5.94
2017-05-17T21:43:53.782Z,5.72
2017-05-17T21:46:22.613Z,5.88
2017-05-17T21:48:51.443Z,5.56
2017-05-17T21:51:20.273Z,4.80
2017-05-17T21:53:49.089Z,5.54
2017-05-17T21:56:17.915Z,6.02
2017-05-17T21:58:46.750Z,5.30
2017-05-17T22:01:15.565Z,5.50
2017-05-17T22:03:44.384Z,5.68
2017-05-17T22:06:13.216Z,6.12
2017-05-17T22:08:42.070Z,7.12
2017-05-17T22:11:10.894Z,5.94
2017-05-17T22:13:39.708Z,6.60
2017-05-17T22:16:08.555Z,5.50
2017-05-17T22:18:37.375Z,6.00
2017-05-17T22:21:06.201Z,4.82
2017-05-17T22:23:35.043Z,6.30
2017-05-17T22:26:03.879Z,5.78
2017-05-17T22:28:32.730Z,6.10
2017-05-17T22:31:01.548Z,7.20
2017-05-17T22:33:30.383Z,7.08
2017-05-17T22:35:59.229Z,6.80
2017-05-17T22:38:28.060Z,7.32
2017-05-17T22:40:56.895Z,7.10
2017-05-17T22:43:25.728Z,7.40
2017-05-17T22:45:54.567Z,7.28
2017-05-17T22:48:23.397Z,6.92
2017-05-17T22:50:52.237Z,6.76
2017-05-17T22:53:21.068Z,7.06
2017-05-17T22:55:49.926Z,7.10
2017-05-17T22:58:18.760Z,8.46
2017-05-17T23:00:47.586Z,7.90
2017-05-17T23:03:16.430Z,7.14
2017-05-17T23:05:45.262Z,7.10
2017-05-17T23:08:14.106Z,6.92
2017-05-17T23:10:42.940Z,7.02
2017-05-17T23:13:11.787Z,5.80
2017-05-17T23:15:40.602Z,5.28
2017-05-17T23:18:09.453Z,5.90
2017-05-17T23:20:38.292Z,5.70
2017-05-17T23:23:07.118Z,7.70
2017-05-17T23:25:35.968Z,5.30
2017-05-17T23:28:04.788Z,7.40
2017-05-17T23:30:33.615Z,6.48
2017-05-17T23:33:02.444Z,6.42
2017-05-17T23:35:31.289Z,6.86
2017-05-17T23:38:00.144Z,7.92
2017-05-17T23:40:28.911Z,6.52
2017-05-17T23:42:57.752Z,7.04
2017-05-17T23:45:26.571Z,6.44
2017-05-17T23:47:55.407Z,6.62
2017-05-17T23:50:24.226Z,6.52
2017-05-17T23:52:53.063Z,7.38
2017-05-17T23:55:21.876Z,7.38
2017-05-17T23:57:50.695Z,8.06
